sensor_id;sensor_type;location;lat;lon;timestamp;P1;durP1;ratioP1;P2;durP2;ratioP2
58685;SDS011;44465;53.206;-6.106;2023-06-24T00:00:38;3.78;;;2.05;;
58685;SDS011;44465;53.206;-6.106;2023-06-24T00:03:04;3.47;;;2.03;;
58685;SDS011;44465;53.206;-6.106;2023-06-24T00:07:58;1.75;;;1.50;;
58685;SDS011;44465;53.206;-6.106;2023-06-24T00:10:27;2.15;;;1.70;;
58685;SDS011;44465;53.206;-6.106;2023-06-24T00:12:53;3.90;;;2.28;;
58685;SDS011;44465;53.206;-6.106;2023-06-24T00:15:18;1.90;;;1.60;;
58685;SDS011;44465;53.206;-6.106;2023-06-24T00:17:43;3.65;;;1.80;;
58685;SDS011;44465;53.206;-6.106;2023-06-24T00:20:09;2.28;;;2.10;;
58685;SDS011;44465;53.206;-6.106;2023-06-24T00:22:38;2.22;;;1.60;;
58685;SDS011;44465;53.206;-6.106;2023-06-24T00:25:09;2.03;;;1.83;;
58685;SDS011;44465;53.206;-6.106;2023-06-24T00:27:35;3.30;;;1.80;;
58685;SDS011;44465;53.206;-6.106;2023-06-24T00:30:00;3.17;;;1.48;;
58685;SDS011;44465;53.206;-6.106;2023-06-24T00:32:26;2.78;;;1.52;;
58685;SDS011;44465;53.206;-6.106;2023-06-24T00:34:51;3.03;;;1.75;;
58685;SDS011;44465;53.206;-6.106;2023-06-24T00:37:17;2.38;;;1.75;;
58685;SDS011;44465;53.206;-6.106;2023-06-24T00:39:42;2.05;;;1.50;;
58685;SDS011;44465;53.206;-6.106;2023-06-24T00:42:08;3.80;;;2.35;;
58685;SDS011;44465;53.206;-6.106;2023-06-24T00:44:34;2.80;;;1.60;;
58685;SDS011;44465;53.206;-6.106;2023-06-24T00:46:59;2.13;;;1.67;;
58685;SDS011;44465;53.206;-6.106;2023-06-24T00:49:27;3.67;;;1.90;;
58685;SDS011;44465;53.206;-6.106;2023-06-24T00:51:52;3.55;;;2.03;;
58685;SDS011;44465;53.206;-6.106;2023-06-24T00:54:18;1.38;;;1.27;;
58685;SDS011;44465;53.206;-6.106;2023-06-24T00:56:43;2.30;;;1.73;;
58685;SDS011;44465;53.206;-6.106;2023-06-24T00:59:10;2.20;;;1.75;;
58685;SDS011;44465;53.206;-6.106;2023-06-24T01:01:38;2.53;;;1.73;;
58685;SDS011;44465;53.206;-6.106;2023-06-24T01:04:04;3.00;;;1.70;;
58685;SDS011;44465;53.206;-6.106;2023-06-24T01:06:30;1.77;;;1.67;;
58685;SDS011;44465;53.206;-6.106;2023-06-24T01:08:59;2.05;;;1.55;;
58685;SDS011;44465;53.206;-6.106;2023-06-24T01:11:31;2.50;;;1.70;;
58685;SDS011;44465;53.206;-6.106;2023-06-24T01:13:57;2.30;;;1.77;;
58685;SDS011;44465;53.206;-6.106;2023-06-24T01:16:33;1.77;;;1.67;;
58685;SDS011;44465;53.206;-6.106;2023-06-24T01:22:03;2.35;;;1.75;;
58685;SDS011;44465;53.206;-6.106;2023-06-24T01:24:46;1.60;;;1.50;;
58685;SDS011;44465;53.206;-6.106;2023-06-24T01:33:10;2.25;;;1.83;;
58685;SDS011;44465;53.206;-6.106;2023-06-24T01:35:41;2.00;;;1.65;;
58685;SDS011;44465;53.206;-6.106;2023-06-24T01:38:10;3.10;;;1.75;;
58685;SDS011;44465;53.206;-6.106;2023-06-24T01:40:47;2.67;;;1.67;;
58685;SDS011;44465;53.206;-6.106;2023-06-24T01:43:14;1.67;;;1.58;;
58685;SDS011;44465;53.206;-6.106;2023-06-24T01:45:45;3.47;;;1.95;;
58685;SDS011;44465;53.206;-6.106;2023-06-24T01:48:34;2.20;;;1.70;;
58685;SDS011;44465;53.206;-6.106;2023-06-24T01:51:03;2.15;;;1.80;;
58685;SDS011;44465;53.206;-6.106;2023-06-24T01:53:32;2.30;;;1.60;;
58685;SDS011;44465;53.206;-6.106;2023-06-24T01:56:00;2.20;;;1.50;;
58685;SDS011;44465;53.206;-6.106;2023-06-24T01:58:29;2.95;;;1.77;;
58685;SDS011;44465;53.206;-6.106;2023-06-24T02:00:57;2.45;;;1.63;;
58685;SDS011;44465;53.206;-6.106;2023-06-24T02:03:24;1.67;;;1.50;;
58685;SDS011;44465;53.206;-6.106;2023-06-24T02:08:18;1.85;;;1.52;;
58685;SDS011;44465;53.206;-6.106;2023-06-24T02:10:47;1.70;;;1.60;;
58685;SDS011;44465;53.206;-6.106;2023-06-24T02:13:14;2.65;;;1.65;;
58685;SDS011;44465;53.206;-6.106;2023-06-24T02:15:41;2.28;;;1.70;;
58685;SDS011;44465;53.206;-6.106;2023-06-24T02:18:08;3.20;;;1.83;;
58685;SDS011;44465;53.206;-6.106;2023-06-24T02:20:34;3.80;;;1.90;;
58685;SDS011;44465;53.206;-6.106;2023-06-24T02:23:04;2.72;;;1.80;;
58685;SDS011;44465;53.206;-6.106;2023-06-24T02:25:33;2.95;;;1.70;;
58685;SDS011;44465;53.206;-6.106;2023-06-24T02:27:59;2.33;;;1.70;;
58685;SDS011;44465;53.206;-6.106;2023-06-24T02:30:25;1.67;;;1.58;;
58685;SDS011;44465;53.206;-6.106;2023-06-24T02:32:51;2.70;;;1.70;;
58685;SDS011;44465;53.206;-6.106;2023-06-24T02:35:17;2.13;;;1.92;;
58685;SDS011;44465;53.206;-6.106;2023-06-24T02:37:43;3.85;;;2.25;;
58685;SDS011;44465;53.206;-6.106;2023-06-24T02:40:08;2.45;;;1.83;;
58685;SDS011;44465;53.206;-6.106;2023-06-24T02:42:35;1.85;;;1.52;;
58685;SDS011;44465;53.206;-6.106;2023-06-24T02:45:01;2.35;;;1.90;;
58685;SDS011;44465;53.206;-6.106;2023-06-24T02:47:27;3.33;;;1.77;;
58685;SDS011;44465;53.206;-6.106;2023-06-24T02:49:54;2.10;;;1.73;;
58685;SDS011;44465;53.206;-6.106;2023-06-24T02:52:23;2.05;;;1.80;;
58685;SDS011;44465;53.206;-6.106;2023-06-24T02:54:49;2.47;;;1.70;;
58685;SDS011;44465;53.206;-6.106;2023-06-24T02:57:44;2.53;;;1.88;;
58685;SDS011;44465;53.206;-6.106;2023-06-24T03:00:16;3.17;;;1.70;;
58685;SDS011;44465;53.206;-6.106;2023-06-24T03:03:01;2.60;;;1.90;;
58685;SDS011;44465;53.206;-6.106;2023-06-24T03:07:54;2.97;;;1.90;;
58685;SDS011;44465;53.206;-6.106;2023-06-24T03:10:22;2.50;;;1.85;;
58685;SDS011;44465;53.206;-6.106;2023-06-24T03:12:49;2.67;;;1.95;;
58685;SDS011;44465;53.206;-6.106;2023-06-24T03:15:15;2.63;;;1.90;;
58685;SDS011;44465;53.206;-6.106;2023-06-24T03:17:40;2.15;;;1.65;;
58685;SDS011;44465;53.206;-6.106;2023-06-24T03:20:06;2.45;;;2.15;;
58685;SDS011;44465;53.206;-6.106;2023-06-24T03:22:33;2.22;;;1.52;;
58685;SDS011;44465;53.206;-6.106;2023-06-24T03:24:59;3.05;;;1.88;;
58685;SDS011;44465;53.206;-6.106;2023-06-24T03:27:24;1.80;;;1.55;;
58685;SDS011;44465;53.206;-6.106;2023-06-24T03:29:51;3.13;;;2.05;;
58685;SDS011;44465;53.206;-6.106;2023-06-24T03:32:16;2.08;;;1.88;;
58685;SDS011;44465;53.206;-6.106;2023-06-24T03:34:42;3.63;;;2.00;;
58685;SDS011;44465;53.206;-6.106;2023-06-24T03:37:09;1.83;;;1.70;;
58685;SDS011;44465;53.206;-6.106;2023-06-24T03:39:38;2.03;;;1.67;;
58685;SDS011;44465;53.206;-6.106;2023-06-24T03:42:04;2.95;;;1.90;;
58685;SDS011;44465;53.206;-6.106;2023-06-24T03:44:30;2.30;;;1.85;;
58685;SDS011;44465;53.206;-6.106;2023-06-24T03:46:56;2.17;;;1.95;;
58685;SDS011;44465;53.206;-6.106;2023-06-24T03:49:21;4.18;;;2.28;;
58685;SDS011;44465;53.206;-6.106;2023-06-24T03:51:47;2.20;;;2.00;;
58685;SDS011;44465;53.206;-6.106;2023-06-24T03:54:13;1.90;;;1.70;;
58685;SDS011;44465;53.206;-6.106;2023-06-24T03:56:38;3.00;;;1.98;;
58685;SDS011;44465;53.206;-6.106;2023-06-24T03:59:04;2.75;;;1.70;;
58685;SDS011;44465;53.206;-6.106;2023-06-24T04:01:29;2.90;;;2.38;;
58685;SDS011;44465;53.206;-6.106;2023-06-24T04:04:00;1.85;;;1.65;;
58685;SDS011;44465;53.206;-6.106;2023-06-24T04:06:25;3.55;;;1.75;;
58685;SDS011;44465;53.206;-6.106;2023-06-24T04:08:52;2.10;;;1.65;;
58685;SDS011;44465;53.206;-6.106;2023-06-24T04:11:18;3.30;;;1.92;;
58685;SDS011;44465;53.206;-6.106;2023-06-24T04:13:45;2.78;;;2.00;;
58685;SDS011;44465;53.206;-6.106;2023-06-24T04:16:11;3.88;;;1.90;;
58685;SDS011;44465;53.206;-6.106;2023-06-24T04:18:36;2.40;;;1.80;;
58685;SDS011;44465;53.206;-6.106;2023-06-24T04:21:05;2.97;;;1.88;;
58685;SDS011;44465;53.206;-6.106;2023-06-24T04:23:34;2.58;;;2.10;;
58685;SDS011;44465;53.206;-6.106;2023-06-24T04:25:59;2.67;;;1.80;;
58685;SDS011;44465;53.206;-6.106;2023-06-24T04:28:25;4.47;;;2.05;;
58685;SDS011;44465;53.206;-6.106;2023-06-24T04:30:51;2.78;;;1.90;;
58685;SDS011;44465;53.206;-6.106;2023-06-24T04:33:17;3.00;;;2.05;;
58685;SDS011;44465;53.206;-6.106;2023-06-24T04:35:43;3.50;;;1.80;;
58685;SDS011;44465;53.206;-6.106;2023-06-24T04:38:09;1.95;;;1.60;;
58685;SDS011;44465;53.206;-6.106;2023-06-24T04:40:35;3.20;;;2.05;;
58685;SDS011;44465;53.206;-6.106;2023-06-24T04:43:01;2.40;;;1.75;;
58685;SDS011;44465;53.206;-6.106;2023-06-24T04:45:26;2.47;;;1.60;;
58685;SDS011;44465;53.206;-6.106;2023-06-24T04:47:52;2.83;;;1.95;;
58685;SDS011;44465;53.206;-6.106;2023-06-24T04:50:17;3.53;;;1.83;;
58685;SDS011;44465;53.206;-6.106;2023-06-24T04:52:43;3.50;;;1.95;;
58685;SDS011;44465;53.206;-6.106;2023-06-24T04:55:09;4.15;;;1.92;;
58685;SDS011;44465;53.206;-6.106;2023-06-24T04:57:35;3.08;;;1.73;;
58685;SDS011;44465;53.206;-6.106;2023-06-24T05:00:01;3.30;;;2.05;;
58685;SDS011;44465;53.206;-6.106;2023-06-24T05:02:27;4.60;;;2.00;;
58685;SDS011;44465;53.206;-6.106;2023-06-24T05:04:52;4.32;;;1.73;;
58685;SDS011;44465;53.206;-6.106;2023-06-24T05:07:18;5.20;;;2.22;;
58685;SDS011;44465;53.206;-6.106;2023-06-24T05:09:47;3.40;;;1.95;;
58685;SDS011;44465;53.206;-6.106;2023-06-24T05:12:13;3.08;;;1.63;;
58685;SDS011;44465;53.206;-6.106;2023-06-24T05:14:39;1.98;;;1.75;;
58685;SDS011;44465;53.206;-6.106;2023-06-24T05:17:04;4.43;;;1.98;;
58685;SDS011;44465;53.206;-6.106;2023-06-24T05:19:30;4.35;;;2.70;;
58685;SDS011;44465;53.206;-6.106;2023-06-24T05:21:56;4.90;;;2.50;;
58685;SDS011;44465;53.206;-6.106;2023-06-24T05:24:22;2.80;;;2.33;;
58685;SDS011;44465;53.206;-6.106;2023-06-24T05:26:50;5.18;;;2.00;;
58685;SDS011;44465;53.206;-6.106;2023-06-24T05:29:16;2.33;;;2.00;;
58685;SDS011;44465;53.206;-6.106;2023-06-24T05:31:43;2.53;;;1.55;;
58685;SDS011;44465;53.206;-6.106;2023-06-24T05:34:08;2.83;;;1.85;;
58685;SDS011;44465;53.206;-6.106;2023-06-24T05:36:34;3.70;;;1.85;;
58685;SDS011;44465;53.206;-6.106;2023-06-24T05:39:00;2.35;;;1.83;;
58685;SDS011;44465;53.206;-6.106;2023-06-24T05:41:25;5.65;;;1.95;;
58685;SDS011;44465;53.206;-6.106;2023-06-24T05:44:00;3.08;;;2.00;;
58685;SDS011;44465;53.206;-6.106;2023-06-24T05:46:31;4.22;;;2.08;;
58685;SDS011;44465;53.206;-6.106;2023-06-24T05:48:56;4.13;;;2.25;;
58685;SDS011;44465;53.206;-6.106;2023-06-24T05:51:22;4.35;;;2.25;;
58685;SDS011;44465;53.206;-6.106;2023-06-24T05:53:47;3.85;;;2.38;;
58685;SDS011;44465;53.206;-6.106;2023-06-24T05:56:13;5.10;;;2.30;;
58685;SDS011;44465;53.206;-6.106;2023-06-24T05:58:38;4.53;;;2.00;;
58685;SDS011;44465;53.206;-6.106;2023-06-24T06:01:04;2.60;;;1.98;;
58685;SDS011;44465;53.206;-6.106;2023-06-24T06:03:29;2.92;;;2.15;;
58685;SDS011;44465;53.206;-6.106;2023-06-24T06:05:56;4.88;;;2.22;;
58685;SDS011;44465;53.206;-6.106;2023-06-24T06:08:21;3.35;;;2.17;;
58685;SDS011;44465;53.206;-6.106;2023-06-24T06:10:47;2.38;;;2.03;;
58685;SDS011;44465;53.206;-6.106;2023-06-24T06:13:12;2.90;;;2.05;;
58685;SDS011;44465;53.206;-6.106;2023-06-24T06:15:38;4.50;;;2.05;;
58685;SDS011;44465;53.206;-6.106;2023-06-24T06:18:03;3.95;;;1.80;;
58685;SDS011;44465;53.206;-6.106;2023-06-24T06:20:29;3.80;;;2.08;;
58685;SDS011;44465;53.206;-6.106;2023-06-24T06:22:56;3.80;;;2.30;;
58685;SDS011;44465;53.206;-6.106;2023-06-24T06:25:21;3.22;;;2.15;;
58685;SDS011;44465;53.206;-6.106;2023-06-24T06:27:47;4.30;;;2.30;;
58685;SDS011;44465;53.206;-6.106;2023-06-24T06:30:12;6.70;;;2.70;;
58685;SDS011;44465;53.206;-6.106;2023-06-24T06:32:38;4.03;;;2.45;;
58685;SDS011;44465;53.206;-6.106;2023-06-24T06:35:04;3.55;;;2.25;;
58685;SDS011;44465;53.206;-6.106;2023-06-24T06:37:30;4.93;;;2.63;;
58685;SDS011;44465;53.206;-6.106;2023-06-24T06:39:55;4.82;;;2.13;;
58685;SDS011;44465;53.206;-6.106;2023-06-24T06:42:21;3.22;;;2.38;;
58685;SDS011;44465;53.206;-6.106;2023-06-24T06:44:46;5.45;;;2.38;;
58685;SDS011;44465;53.206;-6.106;2023-06-24T06:47:12;3.80;;;2.30;;
58685;SDS011;44465;53.206;-6.106;2023-06-24T06:49:37;5.88;;;1.90;;
58685;SDS011;44465;53.206;-6.106;2023-06-24T06:52:03;5.25;;;2.28;;
58685;SDS011;44465;53.206;-6.106;2023-06-24T06:54:28;5.60;;;2.88;;
58685;SDS011;44465;53.206;-6.106;2023-06-24T06:56:54;5.28;;;2.45;;
58685;SDS011;44465;53.206;-6.106;2023-06-24T06:59:20;8.35;;;2.78;;
58685;SDS011;44465;53.206;-6.106;2023-06-24T07:01:46;8.35;;;2.67;;
58685;SDS011;44465;53.206;-6.106;2023-06-24T07:04:11;8.70;;;2.50;;
58685;SDS011;44465;53.206;-6.106;2023-06-24T07:06:37;8.77;;;2.40;;
58685;SDS011;44465;53.206;-6.106;2023-06-24T07:09:02;5.30;;;2.15;;
58685;SDS011;44465;53.206;-6.106;2023-06-24T07:11:28;13.73;;;2.70;;
58685;SDS011;44465;53.206;-6.106;2023-06-24T07:13:53;8.13;;;2.45;;
58685;SDS011;44465;53.206;-6.106;2023-06-24T07:16:19;7.75;;;2.65;;
58685;SDS011;44465;53.206;-6.106;2023-06-24T07:18:45;8.60;;;2.25;;
58685;SDS011;44465;53.206;-6.106;2023-06-24T07:21:10;4.82;;;2.28;;
58685;SDS011;44465;53.206;-6.106;2023-06-24T07:23:36;5.80;;;2.63;;
58685;SDS011;44465;53.206;-6.106;2023-06-24T07:26:01;6.78;;;2.50;;
58685;SDS011;44465;53.206;-6.106;2023-06-24T07:28:27;5.00;;;2.67;;
58685;SDS011;44465;53.206;-6.106;2023-06-24T07:30:52;5.72;;;2.25;;
58685;SDS011;44465;53.206;-6.106;2023-06-24T07:33:18;5.25;;;2.30;;
58685;SDS011;44465;53.206;-6.106;2023-06-24T07:35:44;5.45;;;2.05;;
58685;SDS011;44465;53.206;-6.106;2023-06-24T07:38:10;4.70;;;2.20;;
58685;SDS011;44465;53.206;-6.106;2023-06-24T07:40:35;4.45;;;2.53;;
58685;SDS011;44465;53.206;-6.106;2023-06-24T07:43:00;5.72;;;2.13;;
58685;SDS011;44465;53.206;-6.106;2023-06-24T07:45:26;2.72;;;1.83;;
58685;SDS011;44465;53.206;-6.106;2023-06-24T07:47:51;4.22;;;1.90;;
58685;SDS011;44465;53.206;-6.106;2023-06-24T07:50:17;5.85;;;2.10;;
58685;SDS011;44465;53.206;-6.106;2023-06-24T07:52:42;4.03;;;2.30;;
58685;SDS011;44465;53.206;-6.106;2023-06-24T07:55:08;3.53;;;1.95;;
58685;SDS011;44465;53.206;-6.106;2023-06-24T07:57:33;3.58;;;1.75;;
58685;SDS011;44465;53.206;-6.106;2023-06-24T07:59:59;5.13;;;2.33;;
58685;SDS011;44465;53.206;-6.106;2023-06-24T08:02:24;4.70;;;1.75;;
58685;SDS011;44465;53.206;-6.106;2023-06-24T08:04:51;5.72;;;2.33;;
58685;SDS011;44465;53.206;-6.106;2023-06-24T08:07:17;5.68;;;1.52;;
58685;SDS011;44465;53.206;-6.106;2023-06-24T08:09:42;5.25;;;2.33;;
58685;SDS011;44465;53.206;-6.106;2023-06-24T08:12:08;4.18;;;2.00;;
58685;SDS011;44465;53.206;-6.106;2023-06-24T08:14:34;4.70;;;2.55;;
58685;SDS011;44465;53.206;-6.106;2023-06-24T08:17:00;2.67;;;1.60;;
58685;SDS011;44465;53.206;-6.106;2023-06-24T08:19:25;3.97;;;2.13;;
58685;SDS011;44465;53.206;-6.106;2023-06-24T08:21:51;2.33;;;1.60;;
58685;SDS011;44465;53.206;-6.106;2023-06-24T08:24:16;2.47;;;1.63;;
58685;SDS011;44465;53.206;-6.106;2023-06-24T08:26:42;3.67;;;1.85;;
58685;SDS011;44465;53.206;-6.106;2023-06-24T08:29:07;4.40;;;2.47;;
58685;SDS011;44465;53.206;-6.106;2023-06-24T08:31:33;4.07;;;1.83;;
58685;SDS011;44465;53.206;-6.106;2023-06-24T08:33:59;3.95;;;1.67;;
58685;SDS011;44465;53.206;-6.106;2023-06-24T08:36:27;2.95;;;1.80;;
58685;SDS011;44465;53.206;-6.106;2023-06-24T08:38:54;3.22;;;1.98;;
58685;SDS011;44465;53.206;-6.106;2023-06-24T08:41:20;2.58;;;1.95;;
58685;SDS011;44465;53.206;-6.106;2023-06-24T08:43:45;4.22;;;1.80;;
58685;SDS011;44465;53.206;-6.106;2023-06-24T08:46:11;2.92;;;1.88;;
58685;SDS011;44465;53.206;-6.106;2023-06-24T08:48:39;4.05;;;1.95;;
58685;SDS011;44465;53.206;-6.106;2023-06-24T08:51:08;3.53;;;1.65;;
58685;SDS011;44465;53.206;-6.106;2023-06-24T08:53:34;2.90;;;1.65;;
58685;SDS011;44465;53.206;-6.106;2023-06-24T08:56:03;2.92;;;1.70;;
58685;SDS011;44465;53.206;-6.106;2023-06-24T08:58:29;2.63;;;1.60;;
58685;SDS011;44465;53.206;-6.106;2023-06-24T09:00:55;1.92;;;1.60;;
58685;SDS011;44465;53.206;-6.106;2023-06-24T09:03:21;2.40;;;1.45;;
58685;SDS011;44465;53.206;-6.106;2023-06-24T09:05:47;2.78;;;1.80;;
58685;SDS011;44465;53.206;-6.106;2023-06-24T09:08:13;2.42;;;1.83;;
58685;SDS011;44465;53.206;-6.106;2023-06-24T09:10:40;4.13;;;1.42;;
58685;SDS011;44465;53.206;-6.106;2023-06-24T09:13:07;3.72;;;1.80;;
58685;SDS011;44465;53.206;-6.106;2023-06-24T09:15:33;1.38;;;1.20;;
58685;SDS011;44465;53.206;-6.106;2023-06-24T09:18:02;3.85;;;2.13;;
58685;SDS011;44465;53.206;-6.106;2023-06-24T09:20:29;4.43;;;1.40;;
58685;SDS011;44465;53.206;-6.106;2023-06-24T09:22:59;3.95;;;1.70;;
58685;SDS011;44465;53.206;-6.106;2023-06-24T09:25:26;3.75;;;1.83;;
58685;SDS011;44465;53.206;-6.106;2023-06-24T09:27:52;2.58;;;1.73;;
58685;SDS011;44465;53.206;-6.106;2023-06-24T09:30:18;2.33;;;1.60;;
58685;SDS011;44465;53.206;-6.106;2023-06-24T09:32:46;2.17;;;1.48;;
58685;SDS011;44465;53.206;-6.106;2023-06-24T09:35:13;2.78;;;1.60;;
58685;SDS011;44465;53.206;-6.106;2023-06-24T09:37:38;2.15;;;1.80;;
58685;SDS011;44465;53.206;-6.106;2023-06-24T09:40:04;1.58;;;1.45;;
58685;SDS011;44465;53.206;-6.106;2023-06-24T09:42:31;1.38;;;1.25;;
58685;SDS011;44465;53.206;-6.106;2023-06-24T09:44:57;3.05;;;1.45;;
58685;SDS011;44465;53.206;-6.106;2023-06-24T09:47:23;3.05;;;1.60;;
58685;SDS011;44465;53.206;-6.106;2023-06-24T09:49:53;2.28;;;1.80;;
58685;SDS011;44465;53.206;-6.106;2023-06-24T09:52:20;3.85;;;1.88;;
58685;SDS011;44465;53.206;-6.106;2023-06-24T09:54:47;2.05;;;1.58;;
58685;SDS011;44465;53.206;-6.106;2023-06-24T09:57:16;3.80;;;1.83;;
58685;SDS011;44465;53.206;-6.106;2023-06-24T09:59:46;3.30;;;1.77;;
58685;SDS011;44465;53.206;-6.106;2023-06-24T10:02:14;1.92;;;1.65;;
58685;SDS011;44465;53.206;-6.106;2023-06-24T10:04:40;2.88;;;1.92;;
58685;SDS011;44465;53.206;-6.106;2023-06-24T10:07:06;3.05;;;1.73;;
58685;SDS011;44465;53.206;-6.106;2023-06-24T10:09:32;2.75;;;1.85;;
58685;SDS011;44465;53.206;-6.106;2023-06-24T10:11:58;3.13;;;1.58;;
58685;SDS011;44465;53.206;-6.106;2023-06-24T10:14:23;2.20;;;1.90;;
58685;SDS011;44465;53.206;-6.106;2023-06-24T10:16:49;3.45;;;1.73;;
58685;SDS011;44465;53.206;-6.106;2023-06-24T10:19:19;3.17;;;1.80;;
58685;SDS011;44465;53.206;-6.106;2023-06-24T10:21:53;2.13;;;1.77;;
58685;SDS011;44465;53.206;-6.106;2023-06-24T10:24:31;2.65;;;1.77;;
58685;SDS011;44465;53.206;-6.106;2023-06-24T10:27:05;2.30;;;1.80;;
58685;SDS011;44465;53.206;-6.106;2023-06-24T10:29:33;1.85;;;1.70;;
58685;SDS011;44465;53.206;-6.106;2023-06-24T10:32:03;1.80;;;1.63;;
58685;SDS011;44465;53.206;-6.106;2023-06-24T10:37:22;2.30;;;1.90;;
58685;SDS011;44465;53.206;-6.106;2023-06-24T10:39:52;2.17;;;1.60;;
58685;SDS011;44465;53.206;-6.106;2023-06-24T10:42:39;3.28;;;1.70;;
58685;SDS011;44465;53.206;-6.106;2023-06-24T10:47:35;2.03;;;1.80;;
58685;SDS011;44465;53.206;-6.106;2023-06-24T10:50:07;2.08;;;1.60;;
58685;SDS011;44465;53.206;-6.106;2023-06-24T10:52:37;1.90;;;1.70;;
58685;SDS011;44465;53.206;-6.106;2023-06-24T10:55:10;2.53;;;1.80;;
58685;SDS011;44465;53.206;-6.106;2023-06-24T10:57:38;2.03;;;1.80;;
58685;SDS011;44465;53.206;-6.106;2023-06-24T11:00:03;2.63;;;2.00;;
58685;SDS011;44465;53.206;-6.106;2023-06-24T11:02:29;2.30;;;2.10;;
58685;SDS011;44465;53.206;-6.106;2023-06-24T11:04:56;2.83;;;1.67;;
58685;SDS011;44465;53.206;-6.106;2023-06-24T11:07:24;3.58;;;1.80;;
58685;SDS011;44465;53.206;-6.106;2023-06-24T11:10:04;3.20;;;1.95;;
58685;SDS011;44465;53.206;-6.106;2023-06-24T11:12:32;3.00;;;2.05;;
58685;SDS011;44465;53.206;-6.106;2023-06-24T11:15:05;3.08;;;1.88;;
58685;SDS011;44465;53.206;-6.106;2023-06-24T11:17:33;3.95;;;2.00;;
58685;SDS011;44465;53.206;-6.106;2023-06-24T11:19:59;3.72;;;1.90;;
58685;SDS011;44465;53.206;-6.106;2023-06-24T11:22:26;2.90;;;1.88;;
58685;SDS011;44465;53.206;-6.106;2023-06-24T11:24:52;2.30;;;2.10;;
58685;SDS011;44465;53.206;-6.106;2023-06-24T11:27:24;3.90;;;1.90;;
58685;SDS011;44465;53.206;-6.106;2023-06-24T11:29:54;3.00;;;1.92;;
58685;SDS011;44465;53.206;-6.106;2023-06-24T11:32:20;3.20;;;2.00;;
58685;SDS011;44465;53.206;-6.106;2023-06-24T11:34:46;1.95;;;1.70;;
58685;SDS011;44465;53.206;-6.106;2023-06-24T11:37:13;3.13;;;1.95;;
58685;SDS011;44465;53.206;-6.106;2023-06-24T11:39:40;2.10;;;1.90;;
58685;SDS011;44465;53.206;-6.106;2023-06-24T11:42:06;2.97;;;2.13;;
58685;SDS011;44465;53.206;-6.106;2023-06-24T11:44:33;2.20;;;1.80;;
58685;SDS011;44465;53.206;-6.106;2023-06-24T11:47:05;4.45;;;2.20;;
58685;SDS011;44465;53.206;-6.106;2023-06-24T11:49:32;2.00;;;1.80;;
58685;SDS011;44465;53.206;-6.106;2023-06-24T11:52:12;2.60;;;2.17;;
58685;SDS011;44465;53.206;-6.106;2023-06-24T11:54:40;2.75;;;2.00;;
58685;SDS011;44465;53.206;-6.106;2023-06-24T11:57:06;3.58;;;2.00;;
58685;SDS011;44465;53.206;-6.106;2023-06-24T11:59:32;2.58;;;1.92;;
58685;SDS011;44465;53.206;-6.106;2023-06-24T12:01:58;2.15;;;1.60;;
58685;SDS011;44465;53.206;-6.106;2023-06-24T12:04:28;2.03;;;1.80;;
58685;SDS011;44465;53.206;-6.106;2023-06-24T12:06:58;2.17;;;1.60;;
58685;SDS011;44465;53.206;-6.106;2023-06-24T12:09:24;2.83;;;1.70;;
58685;SDS011;44465;53.206;-6.106;2023-06-24T12:11:50;2.83;;;1.70;;
58685;SDS011;44465;53.206;-6.106;2023-06-24T12:14:16;3.17;;;1.80;;
58685;SDS011;44465;53.206;-6.106;2023-06-24T12:16:41;1.73;;;1.55;;
58685;SDS011;44465;53.206;-6.106;2023-06-24T12:19:07;3.03;;;2.00;;
58685;SDS011;44465;53.206;-6.106;2023-06-24T12:21:33;2.50;;;1.95;;
58685;SDS011;44465;53.206;-6.106;2023-06-24T12:23:59;1.80;;;1.67;;
58685;SDS011;44465;53.206;-6.106;2023-06-24T12:26:25;2.50;;;1.80;;
58685;SDS011;44465;53.206;-6.106;2023-06-24T12:28:53;2.22;;;1.35;;
58685;SDS011;44465;53.206;-6.106;2023-06-24T12:31:19;2.92;;;2.03;;
58685;SDS011;44465;53.206;-6.106;2023-06-24T12:33:44;2.03;;;1.80;;
58685;SDS011;44465;53.206;-6.106;2023-06-24T12:36:10;1.88;;;1.52;;
58685;SDS011;44465;53.206;-6.106;2023-06-24T12:38:35;3.38;;;1.63;;
58685;SDS011;44465;53.206;-6.106;2023-06-24T12:41:01;1.27;;;1.23;;
58685;SDS011;44465;53.206;-6.106;2023-06-24T12:43:27;1.85;;;1.67;;
58685;SDS011;44465;53.206;-6.106;2023-06-24T12:45:52;4.20;;;1.73;;
58685;SDS011;44465;53.206;-6.106;2023-06-24T12:48:18;3.35;;;1.70;;
58685;SDS011;44465;53.206;-6.106;2023-06-24T12:50:43;2.38;;;1.85;;
58685;SDS011;44465;53.206;-6.106;2023-06-24T12:53:09;2.78;;;1.80;;
58685;SDS011;44465;53.206;-6.106;2023-06-24T12:55:39;2.35;;;1.73;;
58685;SDS011;44465;53.206;-6.106;2023-06-24T12:58:04;1.83;;;1.52;;
58685;SDS011;44465;53.206;-6.106;2023-06-24T13:00:30;2.45;;;1.77;;
58685;SDS011;44465;53.206;-6.106;2023-06-24T13:02:55;2.50;;;1.90;;
58685;SDS011;44465;53.206;-6.106;2023-06-24T13:05:21;2.60;;;1.60;;
58685;SDS011;44465;53.206;-6.106;2023-06-24T13:07:47;3.95;;;1.80;;
58685;SDS011;44465;53.206;-6.106;2023-06-24T13:10:12;2.53;;;1.50;;
58685;SDS011;44465;53.206;-6.106;2023-06-24T13:12:38;2.47;;;1.55;;
58685;SDS011;44465;53.206;-6.106;2023-06-24T13:15:04;1.60;;;1.45;;
58685;SDS011;44465;53.206;-6.106;2023-06-24T13:17:31;1.20;;;1.10;;
58685;SDS011;44465;53.206;-6.106;2023-06-24T13:19:56;1.38;;;1.27;;
58685;SDS011;44465;53.206;-6.106;2023-06-24T13:22:22;1.45;;;1.30;;
58685;SDS011;44465;53.206;-6.106;2023-06-24T13:24:48;2.75;;;2.00;;
58685;SDS011;44465;53.206;-6.106;2023-06-24T13:27:14;1.25;;;1.15;;
58685;SDS011;44465;53.206;-6.106;2023-06-24T13:29:39;1.35;;;1.25;;
58685;SDS011;44465;53.206;-6.106;2023-06-24T13:32:05;2.65;;;1.40;;
58685;SDS011;44465;53.206;-6.106;2023-06-24T13:34:31;1.52;;;1.40;;
58685;SDS011;44465;53.206;-6.106;2023-06-24T13:36:56;1.63;;;1.45;;
58685;SDS011;44465;53.206;-6.106;2023-06-24T13:39:22;1.30;;;1.20;;
58685;SDS011;44465;53.206;-6.106;2023-06-24T13:41:48;1.73;;;1.53;;
58685;SDS011;44465;53.206;-6.106;2023-06-24T13:44:14;1.50;;;1.40;;
58685;SDS011;44465;53.206;-6.106;2023-06-24T13:46:40;2.38;;;1.38;;
58685;SDS011;44465;53.206;-6.106;2023-06-24T13:49:06;1.98;;;1.30;;
58685;SDS011;44465;53.206;-6.106;2023-06-24T13:51:31;2.38;;;1.27;;
58685;SDS011;44465;53.206;-6.106;2023-06-24T13:53:57;1.80;;;1.70;;
58685;SDS011;44465;53.206;-6.106;2023-06-24T13:56:23;1.40;;;1.30;;
58685;SDS011;44465;53.206;-6.106;2023-06-24T13:58:50;2.33;;;1.42;;
58685;SDS011;44465;53.206;-6.106;2023-06-24T14:01:16;1.23;;;1.13;;
58685;SDS011;44465;53.206;-6.106;2023-06-24T14:03:41;1.95;;;1.40;;
58685;SDS011;44465;53.206;-6.106;2023-06-24T14:06:08;1.70;;;1.45;;
58685;SDS011;44465;53.206;-6.106;2023-06-24T14:08:34;1.65;;;1.20;;
58685;SDS011;44465;53.206;-6.106;2023-06-24T14:11:00;1.77;;;1.50;;
58685;SDS011;44465;53.206;-6.106;2023-06-24T14:13:27;1.30;;;1.20;;
58685;SDS011;44465;53.206;-6.106;2023-06-24T14:15:53;1.55;;;1.33;;
58685;SDS011;44465;53.206;-6.106;2023-06-24T14:18:20;1.83;;;1.13;;
58685;SDS011;44465;53.206;-6.106;2023-06-24T14:20:45;1.20;;;1.10;;
58685;SDS011;44465;53.206;-6.106;2023-06-24T14:23:11;1.42;;;1.33;;
58685;SDS011;44465;53.206;-6.106;2023-06-24T14:25:36;0.85;;;0.85;;
58685;SDS011;44465;53.206;-6.106;2023-06-24T14:28:03;1.27;;;1.20;;
58685;SDS011;44465;53.206;-6.106;2023-06-24T14:32:55;1.13;;;1.13;;
58685;SDS011;44465;53.206;-6.106;2023-06-24T14:35:20;1.88;;;1.13;;
58685;SDS011;44465;53.206;-6.106;2023-06-24T14:37:46;1.58;;;1.17;;
58685;SDS011;44465;53.206;-6.106;2023-06-24T14:40:12;1.05;;;0.95;;
58685;SDS011;44465;53.206;-6.106;2023-06-24T14:42:38;1.27;;;1.17;;
58685;SDS011;44465;53.206;-6.106;2023-06-24T14:45:03;1.15;;;1.05;;
58685;SDS011;44465;53.206;-6.106;2023-06-24T14:47:29;0.93;;;0.90;;
58685;SDS011;44465;53.206;-6.106;2023-06-24T14:49:55;1.60;;;1.00;;
58685;SDS011;44465;53.206;-6.106;2023-06-24T14:52:20;1.15;;;1.02;;
58685;SDS011;44465;53.206;-6.106;2023-06-24T14:54:46;1.10;;;1.00;;